createdAt,value
2018-05-09T00:00:12.791Z,43.20
2018-05-09T00:02:40.369Z,43.10
2018-05-09T00:05:07.913Z,43.10
2018-05-09T00:07:35.492Z,43.20
2018-05-09T00:10:03.075Z,43.00
2018-05-09T00:12:30.658Z,42.90
2018-05-09T00:14:58.219Z,43.10
2018-05-09T00:17:25.744Z,43.20
2018-05-09T00:19:53.353Z,43.60
2018-05-09T00:22:21.725Z,43.90
2018-05-09T00:24:50.142Z,44.00
2018-05-09T00:27:17.677Z,43.80
2018-05-09T00:29:45.255Z,44.10
2018-05-09T00:32:12.796Z,44.20
2018-05-09T00:34:41.126Z,44.40
2018-05-09T00:37:08.669Z,44.40
2018-05-09T00:39:36.438Z,44.80
2018-05-09T00:42:04.506Z,44.90
2018-05-09T00:44:32.075Z,45.10
2018-05-09T00:46:59.660Z,45.00
2018-05-09T00:49:27.248Z,45.00
2018-05-09T00:51:54.860Z,44.90
2018-05-09T00:54:34.353Z,45.30
2018-05-09T00:57:02.694Z,45.90
2018-05-09T00:59:30.326Z,45.90
2018-05-09T01:59:04.479Z,48.10
2018-05-09T02:01:32.809Z,48.30
2018-05-09T02:04:00.393Z,48.10
2018-05-09T02:06:27.973Z,48.30
2018-05-09T02:08:55.537Z,48.30
2018-05-09T02:11:23.872Z,48.80
2018-05-09T02:13:51.452Z,48.70
2018-05-09T02:16:19.015Z,48.60
2018-05-09T02:18:46.950Z,48.30
2018-05-09T02:21:14.528Z,48.30
2018-05-09T02:23:42.070Z,48.20
2018-05-09T02:26:09.651Z,48.60
2018-05-09T02:28:37.190Z,48.80
2018-05-09T02:31:04.921Z,48.70
2018-05-09T02:33:33.179Z,49.00
2018-05-09T02:36:00.760Z,48.90
2018-05-09T02:38:28.312Z,49.00
2018-05-09T02:40:55.844Z,49.30
2018-05-09T02:43:23.424Z,49.20
2018-05-09T02:45:51.006Z,49.30
2018-05-09T02:48:18.544Z,49.40
2018-05-09T02:50:47.140Z,49.40
2018-05-09T02:53:14.733Z,49.30
2018-05-09T02:55:42.293Z,49.40
2018-05-09T02:58:09.859Z,49.50
2018-05-09T03:00:37.417Z,49.70
2018-05-09T03:03:05.818Z,49.70
2018-05-09T03:05:33.367Z,49.60
2018-05-09T03:08:00.924Z,49.50
2018-05-09T03:10:28.494Z,49.70
2018-05-09T03:12:56.031Z,49.70
2018-05-09T03:15:23.601Z,49.90
2018-05-09T03:17:51.145Z,49.80
2018-05-09T03:20:18.706Z,49.90
2018-05-09T03:22:46.279Z,49.90
2018-05-09T03:25:13.859Z,49.90
2018-05-09T03:27:41.390Z,50.10
2018-05-09T03:30:08.959Z,50.00
2018-05-09T03:32:36.532Z,50.10
2018-05-09T03:35:04.151Z,49.90
2018-05-09T03:37:31.701Z,50.20
2018-05-09T03:39:59.270Z,50.20
2018-05-09T03:42:26.829Z,50.20
2018-05-09T03:44:54.436Z,50.00
2018-05-09T03:47:21.954Z,50.10
2018-05-09T03:49:49.531Z,50.00
2018-05-09T03:52:17.069Z,50.00
2018-05-09T03:54:44.642Z,50.00
2018-05-09T03:57:12.193Z,50.30
2018-05-09T03:59:39.750Z,50.50
2018-05-09T04:02:19.051Z,50.40
2018-05-09T04:08:00.287Z,50.20
2018-05-09T04:10:27.851Z,50.70
2018-05-09T04:12:55.408Z,50.90
2018-05-09T04:15:22.939Z,51.10
2018-05-09T04:17:50.543Z,50.80
2018-05-09T04:20:18.089Z,50.80
2018-05-09T04:22:46.022Z,51.00
2018-05-09T04:25:13.605Z,50.90
2018-05-09T04:27:41.188Z,50.90
2018-05-09T04:30:08.779Z,51.10
2018-05-09T04:32:36.368Z,51.20
2018-05-09T04:35:03.951Z,51.10
2018-05-09T04:37:31.521Z,51.00
2018-05-09T04:39:59.103Z,51.10
2018-05-09T04:42:26.642Z,51.30
2018-05-09T04:44:54.242Z,51.10
2018-05-09T04:47:21.820Z,50.90
2018-05-09T04:49:49.392Z,50.80
2018-05-09T04:52:17.747Z,51.10
2018-05-09T04:54:45.373Z,51.10
2018-05-09T04:57:12.988Z,51.10
2018-05-09T04:59:41.314Z,51.40
2018-05-09T05:02:08.893Z,51.30
2018-05-09T05:04:36.449Z,51.30
2018-05-09T05:07:04.065Z,51.40
2018-05-09T05:09:31.581Z,51.30
2018-05-09T05:11:59.212Z,51.10
2018-05-09T05:14:26.827Z,51.20
2018-05-09T05:16:54.365Z,51.10
2018-05-09T05:19:22.042Z,51.10
2018-05-09T05:21:49.622Z,51.30
2018-05-09T05:24:17.250Z,51.20
2018-05-09T05:26:44.793Z,51.20
2018-05-09T05:29:12.384Z,51.20
2018-05-09T05:31:39.916Z,51.10
2018-05-09T05:34:07.494Z,51.00
2018-05-09T05:36:35.156Z,51.20
2018-05-09T05:39:02.743Z,51.00
2018-05-09T05:41:30.615Z,50.80
2018-05-09T05:43:58.190Z,50.60
2018-05-09T05:46:25.732Z,50.50
2018-05-09T05:48:53.394Z,50.40
2018-05-09T05:51:20.975Z,50.40
2018-05-09T05:53:48.601Z,51.10
2018-05-09T05:56:16.163Z,50.10
2018-05-09T05:58:43.842Z,49.80
2018-05-09T06:01:11.379Z,49.70
2018-05-09T06:03:38.944Z,49.60
2018-05-09T06:06:07.266Z,49.40
2018-05-09T06:08:34.860Z,49.40
2018-05-09T06:11:02.449Z,49.30
2018-05-09T06:13:30.053Z,49.10
2018-05-09T06:15:57.637Z,48.80
2018-05-09T06:18:25.178Z,48.70
2018-05-09T06:20:52.755Z,48.80
2018-05-09T06:23:20.416Z,48.60
2018-05-09T06:25:48.266Z,48.50
2018-05-09T06:28:15.836Z,48.20
2018-05-09T06:30:43.457Z,48.10
2018-05-09T06:33:11.785Z,47.90
2018-05-09T06:35:39.387Z,48.00
2018-05-09T06:38:06.976Z,48.20
2018-05-09T06:40:34.552Z,48.20
2018-05-09T06:43:02.079Z,48.50
2018-05-09T06:45:30.607Z,48.30
2018-05-09T06:47:58.209Z,48.90
2018-05-09T06:50:25.821Z,48.20
2018-05-09T06:52:53.411Z,48.20
2018-05-09T06:55:21.031Z,48.00
2018-05-09T06:57:48.640Z,47.70
2018-05-09T07:00:16.209Z,47.50
2018-05-09T07:02:44.223Z,47.10
2018-05-09T07:05:11.798Z,46.80
2018-05-09T07:07:39.356Z,46.40
2018-05-09T07:10:07.005Z,46.00
2018-05-09T07:12:34.654Z,45.70
2018-05-09T07:15:02.240Z,45.30
2018-05-09T07:17:29.800Z,45.10
2018-05-09T07:19:57.395Z,44.90
2018-05-09T07:22:26.266Z,44.50
2018-05-09T07:24:53.864Z,44.20
2018-05-09T07:27:21.646Z,43.90
2018-05-09T07:29:49.290Z,43.30
2018-05-09T07:32:16.863Z,43.10
2018-05-09T07:34:44.456Z,42.90
2018-05-09T07:37:12.080Z,42.70
2018-05-09T07:39:39.672Z,42.50
2018-05-09T07:42:07.338Z,42.50
2018-05-09T07:44:34.946Z,42.40
2018-05-09T07:47:02.572Z,41.90
2018-05-09T07:49:30.139Z,41.90
2018-05-09T07:51:57.756Z,42.00
2018-05-09T07:54:25.386Z,41.90
2018-05-09T07:56:52.974Z,41.90
2018-05-09T07:59:20.562Z,41.90
2018-05-09T08:01:48.122Z,41.70
2018-05-09T08:04:15.701Z,41.50
2018-05-09T08:06:43.415Z,41.50
2018-05-09T08:09:11.027Z,41.20
2018-05-09T08:11:38.635Z,41.30
2018-05-09T08:14:06.196Z,41.00
2018-05-09T08:16:33.828Z,40.80
2018-05-09T08:19:01.387Z,40.60
2018-05-09T08:21:29.032Z,40.60
2018-05-09T08:23:56.620Z,40.40
2018-05-09T08:26:24.247Z,40.70
2018-05-09T08:28:51.816Z,39.60
2018-05-09T08:31:19.361Z,41.00
2018-05-09T08:33:46.936Z,41.20
2018-05-09T08:36:14.572Z,41.10
2018-05-09T08:38:42.166Z,41.20
2018-05-09T08:41:09.764Z,40.80
2018-05-09T08:43:37.455Z,41.20
2018-05-09T08:46:05.137Z,41.30
2018-05-09T08:48:33.203Z,41.40
2018-05-09T08:51:00.784Z,41.40
2018-05-09T08:53:28.386Z,41.10
2018-05-09T08:55:55.943Z,40.90
2018-05-09T08:58:23.544Z,40.90
2018-05-09T09:00:51.148Z,40.50
2018-05-09T09:03:19.564Z,40.30
2018-05-09T09:05:47.153Z,40.20
2018-05-09T09:08:14.751Z,40.50
2018-05-09T09:10:43.194Z,40.30
2018-05-09T09:13:10.751Z,40.20
2018-05-09T09:15:38.356Z,40.30
2018-05-09T09:18:06.028Z,40.70
2018-05-09T09:20:33.668Z,41.10
2018-05-09T09:23:02.015Z,41.00
2018-05-09T09:25:29.706Z,40.80
2018-05-09T09:27:57.376Z,40.50
2018-05-09T09:30:25.007Z,41.00
2018-05-09T09:32:52.608Z,41.10
2018-05-09T09:35:20.226Z,41.20
2018-05-09T09:37:48.015Z,41.60
2018-05-09T09:40:17.268Z,40.90
2018-05-09T09:42:44.851Z,40.80
2018-05-09T09:45:12.424Z,40.30
2018-05-09T09:47:39.997Z,40.90
2018-05-09T09:50:08.396Z,41.10
2018-05-09T09:52:36.014Z,41.10
2018-05-09T09:55:03.683Z,40.80
2018-05-09T09:57:31.234Z,40.50
2018-05-09T09:59:59.579Z,39.50
2018-05-09T10:02:27.154Z,40.00
2018-05-09T10:04:54.955Z,39.60
2018-05-09T10:07:22.684Z,40.00
2018-05-09T10:09:50.388Z,40.10
2018-05-09T10:12:18.032Z,39.70
2018-05-09T10:14:45.658Z,40.00
2018-05-09T10:17:13.217Z,39.70
2018-05-09T10:19:40.826Z,39.70
2018-05-09T10:22:09.438Z,39.20
2018-05-09T10:24:37.023Z,39.20
2018-05-09T10:27:04.621Z,39.30
2018-05-09T10:29:32.204Z,38.50
2018-05-09T10:31:59.821Z,38.60
2018-05-09T10:34:27.370Z,37.30
2018-05-09T10:36:54.952Z,37.20
2018-05-09T10:39:22.498Z,36.80
2018-05-09T10:41:50.079Z,37.00
2018-05-09T10:44:18.636Z,36.60
2018-05-09T10:46:46.203Z,36.60
2018-05-09T10:49:13.801Z,35.60
2018-05-09T10:51:42.304Z,35.90
2018-05-09T10:54:10.622Z,36.20
2018-05-09T10:56:38.324Z,35.60
2018-05-09T10:59:06.652Z,35.30
2018-05-09T11:01:34.265Z,35.20
2018-05-09T11:04:01.829Z,35.40
2018-05-09T11:06:29.513Z,35.30
2018-05-09T11:08:57.149Z,35.60
2018-05-09T11:11:25.486Z,35.60
2018-05-09T11:13:53.087Z,35.60
2018-05-09T11:16:20.880Z,35.70
2018-05-09T11:18:48.467Z,35.40
2018-05-09T11:21:16.567Z,35.80
2018-05-09T11:23:44.219Z,35.80
2018-05-09T11:26:11.828Z,35.60
2018-05-09T11:28:40.129Z,35.30
2018-05-09T11:31:07.755Z,35.20
2018-05-09T11:33:35.340Z,35.00
2018-05-09T11:36:02.874Z,35.00
2018-05-09T11:38:31.287Z,34.10
2018-05-09T11:40:59.999Z,34.10
2018-05-09T11:43:27.590Z,34.70
2018-05-09T11:45:55.129Z,34.90
2018-05-09T11:48:22.896Z,34.90
2018-05-09T11:50:50.572Z,34.70
2018-05-09T11:53:18.289Z,34.90
2018-05-09T11:55:45.817Z,34.10
2018-05-09T11:58:14.155Z,34.10
2018-05-09T12:00:41.696Z,34.10
2018-05-09T12:03:09.313Z,34.00
2018-05-09T12:05:36.859Z,33.30
2018-05-09T12:08:05.309Z,33.60
2018-05-09T12:10:33.015Z,33.50
2018-05-09T12:13:00.458Z,33.40
2018-05-09T12:15:28.060Z,33.20
2018-05-09T12:18:00.693Z,32.80
2018-05-09T12:20:28.496Z,33.10
2018-05-09T12:22:56.046Z,33.60
2018-05-09T12:25:23.653Z,32.90
2018-05-09T12:27:51.459Z,33.40
2018-05-09T12:30:19.477Z,33.40
2018-05-09T12:32:47.083Z,33.60
2018-05-09T12:35:14.623Z,33.80
2018-05-09T12:37:42.250Z,33.90
2018-05-09T12:40:10.662Z,33.70
2018-05-09T12:42:38.210Z,33.70
2018-05-09T12:45:05.789Z,33.30
2018-05-09T12:47:33.392Z,33.60
2018-05-09T12:50:00.974Z,33.80
2018-05-09T12:52:28.530Z,33.60
2018-05-09T12:54:56.161Z,33.90
2018-05-09T12:57:24.495Z,34.20
2018-05-09T12:59:52.418Z,34.30
2018-05-09T13:02:20.080Z,33.20
2018-05-09T13:04:47.665Z,32.80
2018-05-09T13:07:15.447Z,32.80
2018-05-09T13:09:43.743Z,33.00
2018-05-09T13:12:11.324Z,33.00
2018-05-09T13:14:39.738Z,32.80
2018-05-09T13:17:07.336Z,32.80
2018-05-09T13:19:34.920Z,33.00
2018-05-09T13:22:02.551Z,33.00
2018-05-09T13:24:30.128Z,32.70
2018-05-09T13:26:57.841Z,32.50
2018-05-09T13:29:25.484Z,31.60
2018-05-09T13:31:53.097Z,31.30
2018-05-09T13:34:20.618Z,30.80
2018-05-09T13:36:48.188Z,31.50
2018-05-09T13:39:15.728Z,31.30
2018-05-09T13:41:43.420Z,31.50
2018-05-09T13:44:10.958Z,32.40
2018-05-09T13:46:38.597Z,32.50
2018-05-09T13:49:06.219Z,32.60
2018-05-09T13:51:33.825Z,32.10
2018-05-09T13:54:01.497Z,32.20
2018-05-09T13:56:29.326Z,32.10
2018-05-09T13:58:56.959Z,32.00
2018-05-09T14:01:24.502Z,31.30
2018-05-09T14:03:52.096Z,31.00
2018-05-09T14:06:19.701Z,31.10
2018-05-09T14:08:47.298Z,31.60
2018-05-09T14:11:14.885Z,31.30
2018-05-09T14:13:42.493Z,30.00
2018-05-09T14:16:10.090Z,30.10
2018-05-09T14:18:37.699Z,30.60
2018-05-09T14:21:05.582Z,30.30
2018-05-09T14:23:33.164Z,30.00
2018-05-09T14:26:01.553Z,30.00
2018-05-09T14:28:29.173Z,30.10
2018-05-09T14:30:56.785Z,30.00
2018-05-09T14:33:24.530Z,30.20
2018-05-09T14:35:52.085Z,30.00
2018-05-09T14:38:19.644Z,29.70
2018-05-09T14:40:47.280Z,29.50
2018-05-09T14:43:14.836Z,29.00
2018-05-09T14:45:43.551Z,29.30
2018-05-09T14:48:11.159Z,29.40
2018-05-09T14:50:38.747Z,29.80
2018-05-09T14:53:06.313Z,30.00
2018-05-09T14:55:33.877Z,30.00
2018-05-09T14:58:01.453Z,29.70
2018-05-09T15:00:29.108Z,29.80
2018-05-09T15:02:56.719Z,29.80
2018-05-09T15:05:24.338Z,30.20
2018-05-09T15:07:51.946Z,29.70
2018-05-09T15:10:20.785Z,30.00
2018-05-09T15:12:48.607Z,30.00
2018-05-09T15:15:16.933Z,30.40
2018-05-09T15:17:44.622Z,30.40
2018-05-09T15:20:12.254Z,30.10
2018-05-09T15:22:39.869Z,31.00
2018-05-09T15:25:08.239Z,30.20
2018-05-09T15:27:35.781Z,30.20
2018-05-09T15:30:03.372Z,30.40
2018-05-09T15:32:30.926Z,30.40
2018-05-09T15:34:58.549Z,30.20
2018-05-09T15:37:26.096Z,29.90
2018-05-09T15:39:53.693Z,29.20
2018-05-09T15:42:21.276Z,29.40
2018-05-09T15:44:48.835Z,29.30
2018-05-09T15:47:16.433Z,29.40
2018-05-09T15:49:43.984Z,29.50
2018-05-09T15:52:11.596Z,29.40
2018-05-09T15:54:39.322Z,30.00
2018-05-09T15:57:07.002Z,29.70
2018-05-09T15:59:34.595Z,29.70
2018-05-09T16:02:03.028Z,29.80
2018-05-09T16:04:30.636Z,29.80
2018-05-09T16:06:58.312Z,30.00
2018-05-09T16:09:25.866Z,30.00
2018-05-09T16:11:53.444Z,30.30
2018-05-09T16:14:21.035Z,29.70
2018-05-09T16:16:48.649Z,29.00
2018-05-09T16:19:17.042Z,30.00
2018-05-09T16:21:44.586Z,30.00
2018-05-09T16:24:12.320Z,29.60
2018-05-09T16:26:39.924Z,29.00
2018-05-09T16:29:07.483Z,29.30
2018-05-09T16:31:35.075Z,29.70
2018-05-09T16:34:02.645Z,29.80
2018-05-09T16:36:30.935Z,29.60
2018-05-09T16:38:58.593Z,29.60
2018-05-09T16:41:26.201Z,29.80
2018-05-09T16:43:53.802Z,30.00
2018-05-09T16:46:21.532Z,30.00
2018-05-09T16:48:49.124Z,29.90
2018-05-09T16:51:16.680Z,30.20
2018-05-09T16:53:44.272Z,30.40
2018-05-09T16:56:11.876Z,30.60
2018-05-09T16:58:39.417Z,30.00
2018-05-09T17:01:07.831Z,30.60
2018-05-09T17:03:35.437Z,30.60
2018-05-09T17:06:02.980Z,31.00
2018-05-09T17:08:30.606Z,30.90
2018-05-09T17:10:58.287Z,30.70
2018-05-09T17:13:25.955Z,30.60
2018-05-09T17:15:53.579Z,30.20
2018-05-09T17:18:21.151Z,29.30
2018-05-09T17:20:48.756Z,29.40
2018-05-09T17:23:16.292Z,30.00
2018-05-09T17:25:43.854Z,29.80
2018-05-09T17:28:11.410Z,29.90
2018-05-09T17:30:38.993Z,30.10
2018-05-09T17:33:06.549Z,29.80
2018-05-09T17:35:34.174Z,29.10
2018-05-09T17:38:01.732Z,29.50
2018-05-09T17:40:29.342Z,29.40
2018-05-09T17:42:56.890Z,29.80
2018-05-09T17:45:25.284Z,29.30
2018-05-09T17:47:52.922Z,29.30
2018-05-09T17:50:20.456Z,29.70
2018-05-09T17:52:48.020Z,29.40
2018-05-09T17:55:15.560Z,29.70
2018-05-09T17:57:43.163Z,30.30
2018-05-09T18:00:10.720Z,30.40
2018-05-09T18:02:38.266Z,30.70
2018-05-09T18:05:05.947Z,30.80
2018-05-09T18:07:33.481Z,30.60
2018-05-09T18:10:01.084Z,30.60
2018-05-09T18:12:28.623Z,30.70
2018-05-09T18:14:56.257Z,31.40
2018-05-09T18:17:23.812Z,31.90
2018-05-09T18:19:51.358Z,32.30
2018-05-09T18:22:19.147Z,32.60
2018-05-09T18:24:46.731Z,32.90
2018-05-09T18:27:14.306Z,33.00
2018-05-09T18:29:41.900Z,33.10
2018-05-09T18:32:09.749Z,33.40
2018-05-09T18:34:37.325Z,33.70
2018-05-09T18:37:05.672Z,34.10
2018-05-09T18:39:33.219Z,34.00
2018-05-09T18:42:00.789Z,34.10
2018-05-09T18:44:28.363Z,34.40
2018-05-09T18:46:56.701Z,34.50
2018-05-09T18:49:24.246Z,34.50
2018-05-09T18:51:51.846Z,34.60
2018-05-09T18:54:19.409Z,34.70
2018-05-09T18:56:47.040Z,34.90
2018-05-09T18:59:14.590Z,34.90
2018-05-09T19:01:42.149Z,35.00
2018-05-09T19:04:09.745Z,35.20
2018-05-09T19:06:37.321Z,35.20
2018-05-09T19:09:04.887Z,35.30
2018-05-09T19:11:32.417Z,35.50
2018-05-09T19:14:00.001Z,35.40
2018-05-09T19:16:27.594Z,35.70
2018-05-09T19:18:55.091Z,35.70
2018-05-09T19:21:22.660Z,35.80
2018-05-09T19:23:50.229Z,35.80
2018-05-09T19:26:17.845Z,35.80
2018-05-09T19:28:45.482Z,35.90
2018-05-09T19:31:13.954Z,36.00
2018-05-09T19:33:41.530Z,35.90
2018-05-09T19:36:09.075Z,36.10
2018-05-09T19:38:37.516Z,36.60
2018-05-09T19:41:05.032Z,36.60
2018-05-09T19:43:32.619Z,36.70
2018-05-09T19:46:00.141Z,36.80
2018-05-09T19:48:28.524Z,37.00
2018-05-09T19:50:56.854Z,37.10
2018-05-09T19:53:24.428Z,37.00
2018-05-09T19:55:52.066Z,37.00
2018-05-09T19:58:19.704Z,37.20
2018-05-09T20:00:47.535Z,37.30
2018-05-09T20:03:16.140Z,37.50
2018-05-09T20:05:43.699Z,38.40
2018-05-09T20:08:11.988Z,37.90
2018-05-09T20:10:39.548Z,37.80
2018-05-09T20:13:07.096Z,38.00
2018-05-09T20:15:34.702Z,37.90
2018-05-09T20:18:02.326Z,38.20
2018-05-09T20:20:31.136Z,38.20
2018-05-09T20:22:58.904Z,38.20
2018-05-09T20:25:26.516Z,38.20
2018-05-09T20:27:54.119Z,38.40
2018-05-09T20:30:27.310Z,38.60
2018-05-09T20:32:54.918Z,38.70
2018-05-09T20:35:22.518Z,39.10
2018-05-09T20:37:50.079Z,39.60
2018-05-09T20:40:17.620Z,39.70
2018-05-09T20:42:45.925Z,40.00
2018-05-09T20:45:13.532Z,39.90
2018-05-09T20:47:41.078Z,40.10
2018-05-09T20:50:08.680Z,40.00
2018-05-09T20:52:36.987Z,40.40
2018-05-09T20:58:07.468Z,40.60
2018-05-09T21:00:35.104Z,40.70
2018-05-09T21:03:02.709Z,40.70
2018-05-09T21:05:30.263Z,40.40
2018-05-09T21:07:57.805Z,40.60
2018-05-09T21:10:25.357Z,40.50
2018-05-09T21:12:52.893Z,40.70
2018-05-09T21:15:20.474Z,40.70
2018-05-09T21:17:48.056Z,40.70
2018-05-09T21:20:15.664Z,40.90
2018-05-09T21:22:43.189Z,41.00
2018-05-09T21:25:10.763Z,41.10
2018-05-09T21:27:38.752Z,41.20
2018-05-09T21:30:06.433Z,41.20
2018-05-09T21:32:34.656Z,41.30
2018-05-09T21:35:02.312Z,41.30
2018-05-09T21:37:29.800Z,41.50
2018-05-09T21:39:57.371Z,41.60
2018-05-09T21:42:24.935Z,41.70
2018-05-09T21:44:52.485Z,41.80
2018-05-09T21:47:20.097Z,41.90
2018-05-09T21:49:47.712Z,42.60
2018-05-09T21:52:15.550Z,42.80
2018-05-09T21:54:43.128Z,43.10
2018-05-09T21:57:11.474Z,42.80
2018-05-09T21:59:39.019Z,42.80
2018-05-09T22:02:06.595Z,42.90
2018-05-09T22:04:34.186Z,43.00
2018-05-09T22:07:02.535Z,43.10
2018-05-09T22:09:30.345Z,43.10
2018-05-09T22:11:57.890Z,43.00
2018-05-09T22:14:25.478Z,43.10
2018-05-09T22:16:53.067Z,43.50
2018-05-09T22:19:20.629Z,43.60
2018-05-09T22:21:48.190Z,43.70
2018-05-09T22:24:15.744Z,43.90
2018-05-09T22:26:43.291Z,43.90
2018-05-09T22:29:10.861Z,43.70
2018-05-09T22:31:38.444Z,43.50
2018-05-09T22:34:06.121Z,43.50
2018-05-09T22:36:34.454Z,43.90
2018-05-09T22:39:02.080Z,43.90
2018-05-09T22:41:29.621Z,43.90
2018-05-09T22:43:57.196Z,44.10
2018-05-09T22:46:24.808Z,43.90
2018-05-09T22:48:53.141Z,43.90
2018-05-09T22:51:20.703Z,43.90
2018-05-09T22:53:48.264Z,44.10
2018-05-09T22:56:15.825Z,44.00
2018-05-09T22:58:43.416Z,44.10
2018-05-09T23:01:11.007Z,44.10
2018-05-09T23:03:38.538Z,44.10
2018-05-09T23:06:06.060Z,43.80
2018-05-09T23:08:33.657Z,44.30
2018-05-09T23:11:01.204Z,44.70
2018-05-09T23:13:28.778Z,45.00
2018-05-09T23:15:56.370Z,45.50
2018-05-09T23:18:24.827Z,45.40
2018-05-09T23:20:52.383Z,45.40
2018-05-09T23:23:19.973Z,45.20
2018-05-09T23:25:47.511Z,45.10
2018-05-09T23:28:15.871Z,45.20
2018-05-09T23:30:43.450Z,45.30
2018-05-09T23:33:11.334Z,45.30
2018-05-09T23:35:38.879Z,45.30
2018-05-09T23:38:06.437Z,45.30
2018-05-09T23:40:33.992Z,45.60
2018-05-09T23:43:01.569Z,45.90
2018-05-09T23:45:29.168Z,46.20
2018-05-09T23:47:56.694Z,46.30
2018-05-09T23:50:24.288Z,46.40
2018-05-09T23:52:51.823Z,46.30
2018-05-09T23:55:20.185Z,46.90
2018-05-09T23:57:47.772Z,46.20
